KOOA/OOA METAR and TAF weather

Enter ICAO airport designator
Station Type Date Time Source
KOOA METAR 2019/10/22 16:55 UTC NOAA

KOOA 221655Z AUTO 29018G26KT 10SM SCT030 SCT035 11/03 A2978 RMK AO2 T01140031


Station Type Date Time Source
KOOA Decoded METAR 2019/10/22 16:55 UTC NOAA

Oskaloosa, Oskaloosa Municipal Airport, IA, United States (KOOA) 41-13-34N 092-29-37W
Oct 22, 2019 - 12:55 PM EDT / 2019.10.22 1655 UTC
Wind: from the WNW (290 degrees) at 21 MPH (18 KT) gusting to 30 MPH (26 KT):0
Visibility: 10 mile(s):0
Sky conditions: partly cloudy
Temperature: 52.5 F (11.4 C)
Dew Point: 37.6 F (3.1 C)
Relative Humidity: 56%
Pressure (altimeter): 29.78 in. Hg (1008 hPa)
ob: KOOA 221655Z AUTO 29018G26KT 10SM SCT030 SCT035 11/03 A2978 RMK AO2 T01140031
cycle: 17

Station Type Date Time Source
KOOA TAF UTC NOAA

Error!

Example: see airport list